sensor_id;sensor_type;location;lat;lon;timestamp;temperature;humidity
25668;DHT22;18003;-33.830;151.202;2023-03-16T00:01:36;24.20;99.90
25668;DHT22;18003;-33.830;151.202;2023-03-16T00:04:06;24.20;99.90
25668;DHT22;18003;-33.830;151.202;2023-03-16T00:06:36;24.40;99.90
25668;DHT22;18003;-33.830;151.202;2023-03-16T00:09:06;24.50;99.90
25668;DHT22;18003;-33.830;151.202;2023-03-16T00:11:36;24.50;99.90
25668;DHT22;18003;-33.830;151.202;2023-03-16T00:14:07;24.40;99.90
25668;DHT22;18003;-33.830;151.202;2023-03-16T00:16:37;24.30;99.90
25668;DHT22;18003;-33.830;151.202;2023-03-16T00:19:08;24.50;99.90
25668;DHT22;18003;-33.830;151.202;2023-03-16T00:21:38;24.60;99.90
25668;DHT22;18003;-33.830;151.202;2023-03-16T00:24:08;24.60;99.90
25668;DHT22;18003;-33.830;151.202;2023-03-16T00:26:39;24.60;99.90
25668;DHT22;18003;-33.830;151.202;2023-03-16T00:29:09;24.70;99.90
25668;DHT22;18003;-33.830;151.202;2023-03-16T00:31:39;24.70;99.90
25668;DHT22;18003;-33.830;151.202;2023-03-16T00:34:13;25.00;99.90
25668;DHT22;18003;-33.830;151.202;2023-03-16T00:36:43;24.90;99.90
25668;DHT22;18003;-33.830;151.202;2023-03-16T00:39:13;24.80;99.90
25668;DHT22;18003;-33.830;151.202;2023-03-16T00:41:43;24.80;99.90
25668;DHT22;18003;-33.830;151.202;2023-03-16T00:44:13;24.70;99.90
25668;DHT22;18003;-33.830;151.202;2023-03-16T00:46:43;25.00;99.90
25668;DHT22;18003;-33.830;151.202;2023-03-16T00:49:13;25.00;99.90
25668;DHT22;18003;-33.830;151.202;2023-03-16T00:51:43;25.00;99.90
25668;DHT22;18003;-33.830;151.202;2023-03-16T00:54:13;24.90;99.90
25668;DHT22;18003;-33.830;151.202;2023-03-16T00:56:44;24.90;99.90
25668;DHT22;18003;-33.830;151.202;2023-03-16T00:59:14;25.00;99.90
25668;DHT22;18003;-33.830;151.202;2023-03-16T01:01:45;25.10;99.90
25668;DHT22;18003;-33.830;151.202;2023-03-16T01:04:15;25.00;99.90
25668;DHT22;18003;-33.830;151.202;2023-03-16T01:06:46;24.90;99.90
25668;DHT22;18003;-33.830;151.202;2023-03-16T01:09:16;24.90;99.90
25668;DHT22;18003;-33.830;151.202;2023-03-16T01:11:46;24.90;99.90
25668;DHT22;18003;-33.830;151.202;2023-03-16T01:14:17;25.10;99.90
25668;DHT22;18003;-33.830;151.202;2023-03-16T01:16:49;25.20;99.90
25668;DHT22;18003;-33.830;151.202;2023-03-16T01:19:18;25.10;99.90
25668;DHT22;18003;-33.830;151.202;2023-03-16T01:21:49;25.10;99.90
25668;DHT22;18003;-33.830;151.202;2023-03-16T01:24:19;25.10;99.90
25668;DHT22;18003;-33.830;151.202;2023-03-16T01:26:51;25.30;99.90
25668;DHT22;18003;-33.830;151.202;2023-03-16T01:29:21;25.20;99.90
25668;DHT22;18003;-33.830;151.202;2023-03-16T01:31:52;25.20;99.90
25668;DHT22;18003;-33.830;151.202;2023-03-16T01:34:23;25.10;99.90
25668;DHT22;18003;-33.830;151.202;2023-03-16T01:36:53;25.20;99.90
25668;DHT22;18003;-33.830;151.202;2023-03-16T01:39:23;25.30;99.90
25668;DHT22;18003;-33.830;151.202;2023-03-16T01:42:00;25.40;99.90
25668;DHT22;18003;-33.830;151.202;2023-03-16T01:44:27;25.40;99.90
25668;DHT22;18003;-33.830;151.202;2023-03-16T01:46:57;25.30;99.90
25668;DHT22;18003;-33.830;151.202;2023-03-16T01:49:34;25.20;99.90
25668;DHT22;18003;-33.830;151.202;2023-03-16T01:52:11;25.30;99.90
25668;DHT22;18003;-33.830;151.202;2023-03-16T01:57:16;25.80;99.90
25668;DHT22;18003;-33.830;151.202;2023-03-16T02:02:22;25.90;99.90
25668;DHT22;18003;-33.830;151.202;2023-03-16T02:05:09;25.80;99.90
25668;DHT22;18003;-33.830;151.202;2023-03-16T02:07:36;25.80;99.90
25668;DHT22;18003;-33.830;151.202;2023-03-16T02:10:07;25.90;99.90
25668;DHT22;18003;-33.830;151.202;2023-03-16T02:12:37;26.00;99.90
25668;DHT22;18003;-33.830;151.202;2023-03-16T02:15:08;25.90;99.90
25668;DHT22;18003;-33.830;151.202;2023-03-16T02:17:40;25.90;99.90
25668;DHT22;18003;-33.830;151.202;2023-03-16T02:22:55;26.10;99.90
25668;DHT22;18003;-33.830;151.202;2023-03-16T02:25:28;26.10;99.90
25668;DHT22;18003;-33.830;151.202;2023-03-16T02:30:30;26.20;99.90
25668;DHT22;18003;-33.830;151.202;2023-03-16T02:33:00;26.10;99.90
25668;DHT22;18003;-33.830;151.202;2023-03-16T02:35:30;26.10;99.90
25668;DHT22;18003;-33.830;151.202;2023-03-16T02:38:00;26.10;99.90
25668;DHT22;18003;-33.830;151.202;2023-03-16T02:40:31;26.10;99.90
25668;DHT22;18003;-33.830;151.202;2023-03-16T02:43:00;26.10;99.90
25668;DHT22;18003;-33.830;151.202;2023-03-16T02:45:53;26.10;99.90
25668;DHT22;18003;-33.830;151.202;2023-03-16T02:48:36;26.20;99.90
25668;DHT22;18003;-33.830;151.202;2023-03-16T02:51:01;26.40;99.90
25668;DHT22;18003;-33.830;151.202;2023-03-16T02:53:31;26.50;99.90
25668;DHT22;18003;-33.830;151.202;2023-03-16T02:56:01;26.50;99.90
25668;DHT22;18003;-33.830;151.202;2023-03-16T02:58:31;26.60;99.90
25668;DHT22;18003;-33.830;151.202;2023-03-16T03:01:01;26.70;99.90
25668;DHT22;18003;-33.830;151.202;2023-03-16T03:03:31;26.60;99.90
25668;DHT22;18003;-33.830;151.202;2023-03-16T03:06:01;26.70;99.90
25668;DHT22;18003;-33.830;151.202;2023-03-16T03:08:31;26.70;99.90
25668;DHT22;18003;-33.830;151.202;2023-03-16T03:11:02;26.80;99.90
25668;DHT22;18003;-33.830;151.202;2023-03-16T03:13:32;27.00;99.90
25668;DHT22;18003;-33.830;151.202;2023-03-16T03:16:02;27.10;99.90
25668;DHT22;18003;-33.830;151.202;2023-03-16T03:18:33;27.00;99.90
25668;DHT22;18003;-33.830;151.202;2023-03-16T03:21:03;27.00;99.90
25668;DHT22;18003;-33.830;151.202;2023-03-16T03:23:33;27.10;99.90
25668;DHT22;18003;-33.830;151.202;2023-03-16T03:26:04;27.20;99.90
25668;DHT22;18003;-33.830;151.202;2023-03-16T03:28:34;27.00;99.90
25668;DHT22;18003;-33.830;151.202;2023-03-16T03:31:04;27.10;99.90
25668;DHT22;18003;-33.830;151.202;2023-03-16T03:33:34;27.10;99.90
25668;DHT22;18003;-33.830;151.202;2023-03-16T03:36:04;27.10;99.90
25668;DHT22;18003;-33.830;151.202;2023-03-16T03:38:34;27.00;99.90
25668;DHT22;18003;-33.830;151.202;2023-03-16T03:41:05;27.00;99.90
25668;DHT22;18003;-33.830;151.202;2023-03-16T03:43:35;27.10;99.90
25668;DHT22;18003;-33.830;151.202;2023-03-16T03:46:05;27.10;99.90
25668;DHT22;18003;-33.830;151.202;2023-03-16T03:48:35;27.30;99.90
25668;DHT22;18003;-33.830;151.202;2023-03-16T03:51:05;27.10;99.90
25668;DHT22;18003;-33.830;151.202;2023-03-16T03:53:35;27.10;99.90
25668;DHT22;18003;-33.830;151.202;2023-03-16T03:56:06;27.20;99.90
25668;DHT22;18003;-33.830;151.202;2023-03-16T03:58:36;27.20;99.90
25668;DHT22;18003;-33.830;151.202;2023-03-16T04:01:06;27.20;99.90
25668;DHT22;18003;-33.830;151.202;2023-03-16T04:03:36;27.10;99.90
25668;DHT22;18003;-33.830;151.202;2023-03-16T04:06:06;27.10;99.90
25668;DHT22;18003;-33.830;151.202;2023-03-16T04:08:36;27.20;99.90
25668;DHT22;18003;-33.830;151.202;2023-03-16T04:11:06;27.50;99.90
25668;DHT22;18003;-33.830;151.202;2023-03-16T04:13:37;27.50;99.90
25668;DHT22;18003;-33.830;151.202;2023-03-16T04:16:07;27.30;99.90
25668;DHT22;18003;-33.830;151.202;2023-03-16T04:18:38;27.40;99.90
25668;DHT22;18003;-33.830;151.202;2023-03-16T04:21:11;27.40;99.90
25668;DHT22;18003;-33.830;151.202;2023-03-16T04:23:40;27.50;99.90
25668;DHT22;18003;-33.830;151.202;2023-03-16T04:26:10;27.60;99.90
25668;DHT22;18003;-33.830;151.202;2023-03-16T04:28:40;27.40;99.90
25668;DHT22;18003;-33.830;151.202;2023-03-16T04:31:11;27.40;99.90
25668;DHT22;18003;-33.830;151.202;2023-03-16T04:33:41;27.50;99.90
25668;DHT22;18003;-33.830;151.202;2023-03-16T04:36:11;27.70;99.90
25668;DHT22;18003;-33.830;151.202;2023-03-16T04:38:42;27.70;99.90
25668;DHT22;18003;-33.830;151.202;2023-03-16T04:41:12;27.50;99.90
25668;DHT22;18003;-33.830;151.202;2023-03-16T04:43:42;27.60;99.90
25668;DHT22;18003;-33.830;151.202;2023-03-16T04:46:12;27.70;99.90
25668;DHT22;18003;-33.830;151.202;2023-03-16T04:48:42;27.80;99.90
25668;DHT22;18003;-33.830;151.202;2023-03-16T04:51:12;27.80;99.90
25668;DHT22;18003;-33.830;151.202;2023-03-16T04:53:42;27.60;99.90
25668;DHT22;18003;-33.830;151.202;2023-03-16T04:56:12;27.70;99.90
25668;DHT22;18003;-33.830;151.202;2023-03-16T04:58:43;27.80;99.90
25668;DHT22;18003;-33.830;151.202;2023-03-16T05:01:13;27.90;99.90
25668;DHT22;18003;-33.830;151.202;2023-03-16T05:03:44;27.90;99.90
25668;DHT22;18003;-33.830;151.202;2023-03-16T05:06:14;27.70;99.90
25668;DHT22;18003;-33.830;151.202;2023-03-16T05:08:45;27.80;99.90
25668;DHT22;18003;-33.830;151.202;2023-03-16T05:11:15;27.80;99.90
25668;DHT22;18003;-33.830;151.202;2023-03-16T05:13:45;27.90;99.90
25668;DHT22;18003;-33.830;151.202;2023-03-16T05:16:14;27.80;99.90
25668;DHT22;18003;-33.830;151.202;2023-03-16T05:18:44;27.70;99.90
25668;DHT22;18003;-33.830;151.202;2023-03-16T05:21:14;27.80;99.90
25668;DHT22;18003;-33.830;151.202;2023-03-16T05:23:45;27.90;99.90
25668;DHT22;18003;-33.830;151.202;2023-03-16T05:26:15;28.10;99.90
25668;DHT22;18003;-33.830;151.202;2023-03-16T05:28:45;27.90;99.90
25668;DHT22;18003;-33.830;151.202;2023-03-16T05:31:15;27.90;99.90
25668;DHT22;18003;-33.830;151.202;2023-03-16T05:33:45;27.80;99.90
25668;DHT22;18003;-33.830;151.202;2023-03-16T05:36:15;27.80;99.90
25668;DHT22;18003;-33.830;151.202;2023-03-16T05:38:45;28.00;99.80
25668;DHT22;18003;-33.830;151.202;2023-03-16T05:41:15;27.90;98.20
25668;DHT22;18003;-33.830;151.202;2023-03-16T05:43:46;27.80;98.90
25668;DHT22;18003;-33.830;151.202;2023-03-16T05:46:16;28.00;97.90
25668;DHT22;18003;-33.830;151.202;2023-03-16T05:48:45;28.10;97.10
25668;DHT22;18003;-33.830;151.202;2023-03-16T05:51:16;28.20;96.00
25668;DHT22;18003;-33.830;151.202;2023-03-16T05:53:45;28.20;95.20
25668;DHT22;18003;-33.830;151.202;2023-03-16T05:56:16;28.10;95.10
25668;DHT22;18003;-33.830;151.202;2023-03-16T05:58:46;28.20;95.10
25668;DHT22;18003;-33.830;151.202;2023-03-16T06:01:16;28.20;95.00
25668;DHT22;18003;-33.830;151.202;2023-03-16T06:03:48;28.20;93.70
25668;DHT22;18003;-33.830;151.202;2023-03-16T06:06:19;28.10;94.50
25668;DHT22;18003;-33.830;151.202;2023-03-16T06:08:48;28.20;95.10
25668;DHT22;18003;-33.830;151.202;2023-03-16T06:11:18;28.20;95.10
25668;DHT22;18003;-33.830;151.202;2023-03-16T06:13:48;28.30;94.90
25668;DHT22;18003;-33.830;151.202;2023-03-16T06:16:18;28.30;92.50
25668;DHT22;18003;-33.830;151.202;2023-03-16T06:18:48;28.30;93.70
25668;DHT22;18003;-33.830;151.202;2023-03-16T06:21:18;28.30;94.10
25668;DHT22;18003;-33.830;151.202;2023-03-16T06:23:48;28.30;94.00
25668;DHT22;18003;-33.830;151.202;2023-03-16T06:26:19;28.60;93.90
25668;DHT22;18003;-33.830;151.202;2023-03-16T06:28:48;28.70;93.70
25668;DHT22;18003;-33.830;151.202;2023-03-16T06:31:19;28.70;93.80
25668;DHT22;18003;-33.830;151.202;2023-03-16T06:33:49;29.00;93.90
25668;DHT22;18003;-33.830;151.202;2023-03-16T06:36:19;29.10;93.70
25668;DHT22;18003;-33.830;151.202;2023-03-16T06:38:49;29.00;93.90
25668;DHT22;18003;-33.830;151.202;2023-03-16T06:41:19;28.90;94.00
25668;DHT22;18003;-33.830;151.202;2023-03-16T06:43:49;28.80;94.20
25668;DHT22;18003;-33.830;151.202;2023-03-16T06:46:19;28.90;94.00
25668;DHT22;18003;-33.830;151.202;2023-03-16T06:48:49;29.00;93.80
25668;DHT22;18003;-33.830;151.202;2023-03-16T06:51:19;29.10;93.50
25668;DHT22;18003;-33.830;151.202;2023-03-16T06:53:54;29.00;92.00
25668;DHT22;18003;-33.830;151.202;2023-03-16T06:56:20;29.00;93.00
25668;DHT22;18003;-33.830;151.202;2023-03-16T06:58:53;29.10;92.90
25668;DHT22;18003;-33.830;151.202;2023-03-16T07:01:24;29.10;92.70
25668;DHT22;18003;-33.830;151.202;2023-03-16T07:03:54;29.10;93.20
25668;DHT22;18003;-33.830;151.202;2023-03-16T07:06:24;28.80;92.80
25668;DHT22;18003;-33.830;151.202;2023-03-16T07:08:55;28.50;93.70
25668;DHT22;18003;-33.830;151.202;2023-03-16T07:11:25;28.60;94.10
25668;DHT22;18003;-33.830;151.202;2023-03-16T07:13:55;28.60;94.00
25668;DHT22;18003;-33.830;151.202;2023-03-16T07:16:25;28.60;94.30
25668;DHT22;18003;-33.830;151.202;2023-03-16T07:18:56;28.50;94.80
25668;DHT22;18003;-33.830;151.202;2023-03-16T07:21:26;28.30;95.10
25668;DHT22;18003;-33.830;151.202;2023-03-16T07:23:56;28.40;95.30
25668;DHT22;18003;-33.830;151.202;2023-03-16T07:26:26;28.90;95.40
25668;DHT22;18003;-33.830;151.202;2023-03-16T07:28:56;29.20;95.10
25668;DHT22;18003;-33.830;151.202;2023-03-16T07:31:26;29.00;95.50
25668;DHT22;18003;-33.830;151.202;2023-03-16T07:33:56;29.20;95.70
25668;DHT22;18003;-33.830;151.202;2023-03-16T07:36:27;29.40;95.60
25668;DHT22;18003;-33.830;151.202;2023-03-16T07:38:56;29.50;95.50
25668;DHT22;18003;-33.830;151.202;2023-03-16T07:41:26;29.50;95.70
25668;DHT22;18003;-33.830;151.202;2023-03-16T07:43:56;29.40;95.90
25668;DHT22;18003;-33.830;151.202;2023-03-16T07:46:26;29.50;96.20
25668;DHT22;18003;-33.830;151.202;2023-03-16T07:48:56;29.60;96.30
25668;DHT22;18003;-33.830;151.202;2023-03-16T07:51:25;29.60;96.30
25668;DHT22;18003;-33.830;151.202;2023-03-16T07:53:55;29.50;96.30
25668;DHT22;18003;-33.830;151.202;2023-03-16T07:56:25;29.40;96.60
25668;DHT22;18003;-33.830;151.202;2023-03-16T07:58:55;29.50;96.90
25668;DHT22;18003;-33.830;151.202;2023-03-16T08:01:25;29.70;97.00
25668;DHT22;18003;-33.830;151.202;2023-03-16T08:03:55;29.90;96.80
25668;DHT22;18003;-33.830;151.202;2023-03-16T08:06:25;29.90;96.70
25668;DHT22;18003;-33.830;151.202;2023-03-16T08:08:55;29.70;97.00
25668;DHT22;18003;-33.830;151.202;2023-03-16T08:11:26;29.70;97.10
25668;DHT22;18003;-33.830;151.202;2023-03-16T08:13:56;29.80;97.00
25668;DHT22;18003;-33.830;151.202;2023-03-16T08:16:26;29.90;96.90
25668;DHT22;18003;-33.830;151.202;2023-03-16T08:18:59;29.80;96.90
25668;DHT22;18003;-33.830;151.202;2023-03-16T08:21:29;29.70;97.40
25668;DHT22;18003;-33.830;151.202;2023-03-16T08:24:00;29.70;97.60
25668;DHT22;18003;-33.830;151.202;2023-03-16T08:26:30;29.70;97.60
25668;DHT22;18003;-33.830;151.202;2023-03-16T08:29:00;29.80;97.90
25668;DHT22;18003;-33.830;151.202;2023-03-16T08:31:31;29.60;97.90
25668;DHT22;18003;-33.830;151.202;2023-03-16T08:34:02;29.50;98.50
25668;DHT22;18003;-33.830;151.202;2023-03-16T08:36:32;29.70;98.30
25668;DHT22;18003;-33.830;151.202;2023-03-16T08:39:02;29.60;98.20
25668;DHT22;18003;-33.830;151.202;2023-03-16T08:41:33;29.60;98.30
25668;DHT22;18003;-33.830;151.202;2023-03-16T08:44:04;29.50;98.60
25668;DHT22;18003;-33.830;151.202;2023-03-16T08:46:35;29.50;98.60
25668;DHT22;18003;-33.830;151.202;2023-03-16T08:49:05;29.60;98.50
25668;DHT22;18003;-33.830;151.202;2023-03-16T08:51:35;29.70;98.40
25668;DHT22;18003;-33.830;151.202;2023-03-16T08:54:06;29.70;98.30
25668;DHT22;18003;-33.830;151.202;2023-03-16T08:56:36;29.50;98.50
25668;DHT22;18003;-33.830;151.202;2023-03-16T08:59:06;29.50;98.80
25668;DHT22;18003;-33.830;151.202;2023-03-16T09:01:36;29.60;98.30
25668;DHT22;18003;-33.830;151.202;2023-03-16T09:04:07;29.70;98.10
25668;DHT22;18003;-33.830;151.202;2023-03-16T09:06:38;29.60;98.10
25668;DHT22;18003;-33.830;151.202;2023-03-16T09:09:08;29.40;98.20
25668;DHT22;18003;-33.830;151.202;2023-03-16T09:11:38;29.50;98.30
25668;DHT22;18003;-33.830;151.202;2023-03-16T09:14:09;29.50;98.10
25668;DHT22;18003;-33.830;151.202;2023-03-16T09:16:42;29.60;98.00
25668;DHT22;18003;-33.830;151.202;2023-03-16T09:19:13;29.50;97.90
25668;DHT22;18003;-33.830;151.202;2023-03-16T09:21:43;29.30;98.10
25668;DHT22;18003;-33.830;151.202;2023-03-16T09:24:12;29.30;98.30
25668;DHT22;18003;-33.830;151.202;2023-03-16T09:26:43;29.40;98.10
25668;DHT22;18003;-33.830;151.202;2023-03-16T09:29:13;29.40;98.10
25668;DHT22;18003;-33.830;151.202;2023-03-16T09:31:43;29.40;98.00
25668;DHT22;18003;-33.830;151.202;2023-03-16T09:34:14;29.10;98.50
25668;DHT22;18003;-33.830;151.202;2023-03-16T09:36:44;29.20;98.50
25668;DHT22;18003;-33.830;151.202;2023-03-16T09:39:14;29.10;98.40
25668;DHT22;18003;-33.830;151.202;2023-03-16T09:42:03;29.00;98.20
25668;DHT22;18003;-33.830;151.202;2023-03-16T09:47:13;28.80;98.60
25668;DHT22;18003;-33.830;151.202;2023-03-16T09:49:47;28.90;98.30
25668;DHT22;18003;-33.830;151.202;2023-03-16T09:52:37;28.90;98.10
25668;DHT22;18003;-33.830;151.202;2023-03-16T09:57:46;28.60;98.50
25668;DHT22;18003;-33.830;151.202;2023-03-16T10:00:22;28.60;98.80
25668;DHT22;18003;-33.830;151.202;2023-03-16T10:05:54;28.70;98.60
25668;DHT22;18003;-33.830;151.202;2023-03-16T10:08:24;28.60;98.60
25668;DHT22;18003;-33.830;151.202;2023-03-16T10:16:54;28.40;99.00
25668;DHT22;18003;-33.830;151.202;2023-03-16T10:21:59;28.30;98.70
25668;DHT22;18003;-33.830;151.202;2023-03-16T10:24:53;28.20;99.00
25668;DHT22;18003;-33.830;151.202;2023-03-16T10:27:19;28.30;99.00
25668;DHT22;18003;-33.830;151.202;2023-03-16T10:29:49;28.30;99.10
25668;DHT22;18003;-33.830;151.202;2023-03-16T10:32:19;28.20;98.90
25668;DHT22;18003;-33.830;151.202;2023-03-16T10:34:59;28.10;99.30
25668;DHT22;18003;-33.830;151.202;2023-03-16T10:37:29;28.10;99.30
25668;DHT22;18003;-33.830;151.202;2023-03-16T10:39:59;28.10;99.20
25668;DHT22;18003;-33.830;151.202;2023-03-16T10:42:30;28.10;99.20
25668;DHT22;18003;-33.830;151.202;2023-03-16T10:45:04;28.10;99.20
25668;DHT22;18003;-33.830;151.202;2023-03-16T10:47:34;27.90;99.30
25668;DHT22;18003;-33.830;151.202;2023-03-16T10:50:14;28.00;99.30
25668;DHT22;18003;-33.830;151.202;2023-03-16T10:52:45;28.10;99.20
25668;DHT22;18003;-33.830;151.202;2023-03-16T10:55:25;28.10;99.30
25668;DHT22;18003;-33.830;151.202;2023-03-16T10:57:55;27.90;99.20
25668;DHT22;18003;-33.830;151.202;2023-03-16T11:00:33;27.80;99.40
25668;DHT22;18003;-33.830;151.202;2023-03-16T11:03:11;27.90;99.40
25668;DHT22;18003;-33.830;151.202;2023-03-16T11:05:36;28.00;99.40
25668;DHT22;18003;-33.830;151.202;2023-03-16T11:08:14;28.00;99.10
25668;DHT22;18003;-33.830;151.202;2023-03-16T11:10:45;27.80;99.30
25668;DHT22;18003;-33.830;151.202;2023-03-16T11:13:19;27.80;99.50
25668;DHT22;18003;-33.830;151.202;2023-03-16T11:16:02;27.90;99.30
25668;DHT22;18003;-33.830;151.202;2023-03-16T11:18:51;27.90;99.20
25668;DHT22;18003;-33.830;151.202;2023-03-16T11:22:08;27.90;99.10
25668;DHT22;18003;-33.830;151.202;2023-03-16T11:23:56;27.60;99.40
25668;DHT22;18003;-33.830;151.202;2023-03-16T11:26:30;27.80;99.40
25668;DHT22;18003;-33.830;151.202;2023-03-16T11:29:48;27.80;99.20
25668;DHT22;18003;-33.830;151.202;2023-03-16T11:34:18;27.60;98.80
25668;DHT22;18003;-33.830;151.202;2023-03-16T11:36:51;27.50;99.20
25668;DHT22;18003;-33.830;151.202;2023-03-16T11:42:19;27.70;98.90
25668;DHT22;18003;-33.830;151.202;2023-03-16T11:44:54;27.70;98.80
25668;DHT22;18003;-33.830;151.202;2023-03-16T11:50:32;27.50;99.10
25668;DHT22;18003;-33.830;151.202;2023-03-16T11:53:10;27.60;99.00
25668;DHT22;18003;-33.830;151.202;2023-03-16T12:14:52;27.30;99.00
25668;DHT22;18003;-33.830;151.202;2023-03-16T12:17:25;27.40;98.80
25668;DHT22;18003;-33.830;151.202;2023-03-16T12:22:54;27.30;98.70
25668;DHT22;18003;-33.830;151.202;2023-03-16T12:25:30;27.10;99.00
25668;DHT22;18003;-33.830;151.202;2023-03-16T12:27:54;27.20;98.80
25668;DHT22;18003;-33.830;151.202;2023-03-16T12:30:36;27.30;98.90
25668;DHT22;18003;-33.830;151.202;2023-03-16T12:36:29;27.10;98.40
25668;DHT22;18003;-33.830;151.202;2023-03-16T12:38:55;27.00;98.60
25668;DHT22;18003;-33.830;151.202;2023-03-16T12:44:14;26.70;98.80
25668;DHT22;18003;-33.830;151.202;2023-03-16T12:46:51;26.90;99.10
25668;DHT22;18003;-33.830;151.202;2023-03-16T12:49:20;26.80;98.90
25668;DHT22;18003;-33.830;151.202;2023-03-16T12:52:00;26.60;98.80
25668;DHT22;18003;-33.830;151.202;2023-03-16T12:54:30;26.60;98.90
25668;DHT22;18003;-33.830;151.202;2023-03-16T12:57:13;26.50;99.00
25668;DHT22;18003;-33.830;151.202;2023-03-16T12:59:42;26.50;99.00
25668;DHT22;18003;-33.830;151.202;2023-03-16T13:02:18;26.40;98.80
25668;DHT22;18003;-33.830;151.202;2023-03-16T13:04:53;26.40;99.00
25668;DHT22;18003;-33.830;151.202;2023-03-16T13:07:24;26.30;98.70
25668;DHT22;18003;-33.830;151.202;2023-03-16T13:10:28;26.30;98.70
25668;DHT22;18003;-33.830;151.202;2023-03-16T13:12:34;26.20;98.70
25668;DHT22;18003;-33.830;151.202;2023-03-16T13:18:18;26.20;98.80
25668;DHT22;18003;-33.830;151.202;2023-03-16T13:20:34;26.10;98.70
25668;DHT22;18003;-33.830;151.202;2023-03-16T13:23:07;26.10;98.80
25668;DHT22;18003;-33.830;151.202;2023-03-16T13:25:40;26.10;98.80
25668;DHT22;18003;-33.830;151.202;2023-03-16T13:28:14;26.00;98.80
25668;DHT22;18003;-33.830;151.202;2023-03-16T13:30:46;26.00;98.80
25668;DHT22;18003;-33.830;151.202;2023-03-16T13:33:23;26.00;98.80
25668;DHT22;18003;-33.830;151.202;2023-03-16T13:35:55;26.00;98.80
25668;DHT22;18003;-33.830;151.202;2023-03-16T13:38:26;25.90;99.00
25668;DHT22;18003;-33.830;151.202;2023-03-16T13:41:04;25.90;99.00
25668;DHT22;18003;-33.830;151.202;2023-03-16T13:43:37;25.90;99.00
25668;DHT22;18003;-33.830;151.202;2023-03-16T13:46:17;25.90;99.10
25668;DHT22;18003;-33.830;151.202;2023-03-16T13:48:50;25.90;99.00
25668;DHT22;18003;-33.830;151.202;2023-03-16T13:51:21;25.80;98.90
25668;DHT22;18003;-33.830;151.202;2023-03-16T13:53:51;25.80;99.00
25668;DHT22;18003;-33.830;151.202;2023-03-16T13:56:22;25.80;98.80
25668;DHT22;18003;-33.830;151.202;2023-03-16T13:58:54;25.70;98.80
25668;DHT22;18003;-33.830;151.202;2023-03-16T14:01:28;25.70;98.90
25668;DHT22;18003;-33.830;151.202;2023-03-16T14:04:00;25.70;99.10
25668;DHT22;18003;-33.830;151.202;2023-03-16T14:06:35;25.70;98.70
25668;DHT22;18003;-33.830;151.202;2023-03-16T14:09:10;25.70;98.70
25668;DHT22;18003;-33.830;151.202;2023-03-16T14:11:37;25.70;98.80
25668;DHT22;18003;-33.830;151.202;2023-03-16T14:14:14;25.60;98.70
25668;DHT22;18003;-33.830;151.202;2023-03-16T14:16:45;25.60;98.70
25668;DHT22;18003;-33.830;151.202;2023-03-16T14:19:23;25.60;98.70
25668;DHT22;18003;-33.830;151.202;2023-03-16T14:21:54;25.60;98.80
25668;DHT22;18003;-33.830;151.202;2023-03-16T14:24:35;25.50;98.40
25668;DHT22;18003;-33.830;151.202;2023-03-16T14:27:19;25.50;98.60
25668;DHT22;18003;-33.830;151.202;2023-03-16T14:30:08;25.50;98.50
25668;DHT22;18003;-33.830;151.202;2023-03-16T14:32:33;25.50;98.50
25668;DHT22;18003;-33.830;151.202;2023-03-16T14:37:42;25.40;98.30
25668;DHT22;18003;-33.830;151.202;2023-03-16T14:40:26;25.40;98.40
25668;DHT22;18003;-33.830;151.202;2023-03-16T14:42:58;25.40;98.40
25668;DHT22;18003;-33.830;151.202;2023-03-16T14:45:33;25.40;98.50
25668;DHT22;18003;-33.830;151.202;2023-03-16T14:48:05;25.30;98.50
25668;DHT22;18003;-33.830;151.202;2023-03-16T14:50:35;25.40;98.50
25668;DHT22;18003;-33.830;151.202;2023-03-16T14:53:05;25.30;98.50
25668;DHT22;18003;-33.830;151.202;2023-03-16T14:55:35;25.30;98.60
25668;DHT22;18003;-33.830;151.202;2023-03-16T14:58:05;25.30;98.50
25668;DHT22;18003;-33.830;151.202;2023-03-16T15:00:36;25.20;98.50
25668;DHT22;18003;-33.830;151.202;2023-03-16T15:03:09;25.20;98.30
25668;DHT22;18003;-33.830;151.202;2023-03-16T15:05:39;25.20;98.30
25668;DHT22;18003;-33.830;151.202;2023-03-16T15:08:17;25.20;98.40
25668;DHT22;18003;-33.830;151.202;2023-03-16T15:10:47;25.10;98.50
25668;DHT22;18003;-33.830;151.202;2023-03-16T15:13:19;25.10;98.50
25668;DHT22;18003;-33.830;151.202;2023-03-16T15:15:54;25.20;98.40
25668;DHT22;18003;-33.830;151.202;2023-03-16T15:18:24;25.10;98.30
25668;DHT22;18003;-33.830;151.202;2023-03-16T15:20:54;25.10;98.40
25668;DHT22;18003;-33.830;151.202;2023-03-16T15:23:24;25.10;98.20
25668;DHT22;18003;-33.830;151.202;2023-03-16T15:25:54;25.10;98.30
25668;DHT22;18003;-33.830;151.202;2023-03-16T15:28:26;25.00;98.10
25668;DHT22;18003;-33.830;151.202;2023-03-16T15:30:58;25.00;98.30
25668;DHT22;18003;-33.830;151.202;2023-03-16T15:33:28;25.00;98.30
25668;DHT22;18003;-33.830;151.202;2023-03-16T15:35:59;25.00;98.40
25668;DHT22;18003;-33.830;151.202;2023-03-16T15:38:34;25.00;98.30
25668;DHT22;18003;-33.830;151.202;2023-03-16T15:41:11;25.00;98.40
25668;DHT22;18003;-33.830;151.202;2023-03-16T15:43:42;24.90;98.30
25668;DHT22;18003;-33.830;151.202;2023-03-16T15:46:12;24.90;98.40
25668;DHT22;18003;-33.830;151.202;2023-03-16T15:48:43;24.90;98.30
25668;DHT22;18003;-33.830;151.202;2023-03-16T15:51:29;24.90;98.30
25668;DHT22;18003;-33.830;151.202;2023-03-16T15:53:56;24.90;98.30
25668;DHT22;18003;-33.830;151.202;2023-03-16T15:56:28;24.90;98.40
25668;DHT22;18003;-33.830;151.202;2023-03-16T15:59:05;24.80;98.40
25668;DHT22;18003;-33.830;151.202;2023-03-16T16:01:32;24.80;98.30
25668;DHT22;18003;-33.830;151.202;2023-03-16T16:04:04;24.80;98.60
25668;DHT22;18003;-33.830;151.202;2023-03-16T16:06:34;24.80;98.30
25668;DHT22;18003;-33.830;151.202;2023-03-16T16:09:04;24.80;98.30
25668;DHT22;18003;-33.830;151.202;2023-03-16T16:11:34;24.80;98.30
25668;DHT22;18003;-33.830;151.202;2023-03-16T16:14:04;24.70;98.20
25668;DHT22;18003;-33.830;151.202;2023-03-16T16:16:34;24.70;98.30
25668;DHT22;18003;-33.830;151.202;2023-03-16T16:19:07;24.70;98.30
25668;DHT22;18003;-33.830;151.202;2023-03-16T16:21:36;24.70;98.30
25668;DHT22;18003;-33.830;151.202;2023-03-16T16:24:07;24.60;98.20